Time;durP1;ratioP1;P1;durP2;ratioP2;P2;SDS_P1;SDS_P2;PMS_P1;PMS_P2;Temp;Humidity;BMP_temperature;BMP_pressure;BME280_temperature;BME280_humidity;BME280_pressure;Samples;Min_cycle;Max_cycle;Signal;HPM_P1;HPM_P2
2023/03/06 00:00:33;;;;;;;;;38.50;33.25;;;;;9.55;100.00;100884.06;5042355;28;45369;-75
2023/03/06 00:02:59;;;;;;;;;42.50;36.00;;;;;9.64;100.00;100888.66;5039308;28;46869;-75
2023/03/06 00:05:25;;;;;;;;;55.00;37.75;;;;;9.52;100.00;100887.03;5041103;28;45242;-75
2023/03/06 00:07:50;;;;;;;;;45.75;36.50;;;;;9.48;100.00;100880.19;5050276;28;45382;-74
2023/03/06 00:10:25;;;;;;;;;47.75;38.25;;;;;9.34;100.00;100847.03;5036278;28;45426;-75
2023/03/06 00:12:55;;;;;;;;;43.00;39.75;;;;;9.41;100.00;100873.59;5035038;28;46747;-75
2023/03/06 00:15:21;;;;;;;;;46.75;39.25;;;;;9.50;100.00;100870.03;5050712;28;45418;-75
2023/03/06 00:17:47;;;;;;;;;47.00;36.75;;;;;9.13;100.00;100838.09;5053601;28;45516;-75
2023/03/06 00:20:13;;;;;;;;;40.25;37.00;;;;;9.31;100.00;100858.16;5057944;28;45665;-75
2023/03/06 00:22:40;;;;;;;;;48.75;39.00;;;;;9.38;100.00;100864.75;5038618;28;48234;-74
2023/03/06 00:25:06;;;;;;;;;54.00;41.00;;;;;9.46;100.00;100876.75;5034608;28;45403;-74
2023/03/06 00:27:32;;;;;;;;;43.25;37.75;;;;;9.27;100.00;100862.16;5043413;28;45374;-74
2023/03/06 00:29:59;;;;;;;;;46.25;36.50;;;;;9.40;100.00;100853.75;5042942;28;45386;-73
2023/03/06 00:32:26;;;;;;;;;50.75;40.00;;;;;9.33;100.00;100858.88;5030987;28;47135;-74
2023/03/06 00:34:53;;;;;;;;;42.25;36.50;;;;;9.43;100.00;100866.16;5042572;28;45551;-74
2023/03/06 00:37:19;;;;;;;;;55.00;40.75;;;;;9.32;100.00;100859.00;5029681;28;45411;-73
2023/03/06 00:39:45;;;;;;;;;49.75;39.50;;;;;9.15;100.00;100838.81;5040843;28;46246;-73
2023/03/06 00:42:11;;;;;;;;;52.50;41.50;;;;;9.29;100.00;100833.03;5026408;28;45840;-74
2023/03/06 00:44:36;;;;;;;;;48.00;40.50;;;;;9.27;100.00;100824.19;5040655;28;45398;-74
2023/03/06 00:47:02;;;;;;;;;51.00;39.50;;;;;9.38;100.00;100832.19;5035026;28;45333;-74
2023/03/06 00:49:27;;;;;;;;;47.75;38.50;;;;;9.48;100.00;100837.66;5042718;28;45129;-74
2023/03/06 00:51:52;;;;;;;;;46.75;38.75;;;;;9.25;100.00;100804.50;5034748;28;46511;-74
2023/03/06 00:54:18;;;;;;;;;56.25;42.75;;;;;9.17;100.00;100790.75;5031354;28;45566;-74
2023/03/06 00:56:43;;;;;;;;;57.25;41.25;;;;;9.18;100.00;100816.88;5039689;28;45405;-74
2023/03/06 00:59:09;;;;;;;;;47.75;36.75;;;;;9.36;100.00;100830.63;5043004;28;46031;-73
2023/03/06 01:01:35;;;;;;;;;41.75;35.75;;;;;9.29;100.00;100848.44;5051126;28;47497;-74
2023/03/06 01:04:00;;;;;;;;;47.50;39.75;;;;;9.31;100.00;100838.31;5037980;28;45447;-74
2023/03/06 01:06:25;;;;;;;;;47.75;40.00;;;;;9.28;100.00;100817.75;5051789;28;45381;-74
2023/03/06 01:08:51;;;;;;;;;52.75;40.00;;;;;9.42;100.00;100849.06;5042476;28;45321;-74
2023/03/06 01:11:16;;;;;;;;;48.50;41.00;;;;;9.32;100.00;100840.91;5048621;28;46183;-74
2023/03/06 01:13:43;;;;;;;;;50.00;40.00;;;;;9.38;100.00;100859.31;5051860;28;45669;-74
2023/03/06 01:16:11;;;;;;;;;48.50;37.00;;;;;9.26;100.00;100841.44;5031234;28;45481;-74
2023/03/06 01:18:38;;;;;;;;;49.25;41.00;;;;;9.08;100.00;100815.97;5036160;28;45362;-74
2023/03/06 01:21:04;;;;;;;;;52.50;39.25;;;;;9.13;100.00;100827.25;5035933;28;45452;-74
2023/03/06 01:23:29;;;;;;;;;40.25;38.50;;;;;9.24;100.00;100848.84;5037692;28;45504;-74
2023/03/06 01:25:55;;;;;;;;;46.00;37.75;;;;;9.17;100.00;100842.28;5029483;28;45452;-74
2023/03/06 01:28:20;;;;;;;;;48.00;39.50;;;;;9.16;100.00;100847.81;5040914;28;45409;-74
2023/03/06 01:30:46;;;;;;;;;52.75;41.75;;;;;9.19;100.00;100850.28;5042668;28;47505;-74
2023/03/06 01:33:11;;;;;;;;;42.50;37.00;;;;;9.10;100.00;100827.56;5050775;28;45741;-74
2023/03/06 01:35:37;;;;;;;;;49.75;38.75;;;;;9.19;100.00;100815.88;5036477;28;45286;-74
2023/03/06 01:38:03;;;;;;;;;53.50;41.00;;;;;9.07;100.00;100800.72;5034869;28;45313;-74
2023/03/06 01:40:34;;;;;;;;;49.25;36.75;;;;;9.27;100.00;100834.19;5052606;28;46008;-74
2023/03/06 01:43:22;;;;;;;;;47.00;38.75;;;;;9.30;100.00;100825.75;5036849;28;45452;-74
2023/03/06 01:45:48;;;;;;;;;45.50;39.75;;;;;9.30;100.00;100828.47;5036228;28;45259;-74
2023/03/06 01:48:14;;;;;;;;;46.50;37.75;;;;;9.26;100.00;100811.63;5039993;28;45595;-74
2023/03/06 01:50:39;;;;;;;;;48.00;38.25;;;;;9.15;100.00;100790.03;5043643;28;46532;-74
2023/03/06 01:53:06;;;;;;;;;25.25;19.25;;;;;9.19;100.00;100815.88;5034629;28;45223;-74
2023/03/06 01:55:34;;;;;;;;;40.50;35.50;;;;;9.15;100.00;100802.72;5041890;28;45342;-74
2023/03/06 01:58:04;;;;;;;;;48.75;37.75;;;;;9.07;100.00;100770.03;5040509;28;45396;-74
2023/03/06 02:00:29;;;;;;;;;40.75;35.00;;;;;9.08;100.00;100780.75;5041593;28;46414;-74
2023/03/06 02:03:09;;;;;;;;;35.25;30.25;;;;;9.32;100.00;100805.66;5040846;28;45267;-74
2023/03/06 02:05:35;;;;;;;;;38.50;29.50;;;;;9.30;100.00;100791.38;5042214;28;45351;-74
2023/03/06 02:08:02;;;;;;;;;36.25;32.75;;;;;9.27;100.00;100807.94;5038839;28;45652;-74
2023/03/06 02:10:28;;;;;;;;;37.00;33.00;;;;;9.18;100.00;100783.50;5036139;28;47305;-74
2023/03/06 02:12:53;;;;;;;;;42.75;36.75;;;;;9.30;100.00;100802.22;5036906;28;45302;-74
2023/03/06 02:15:24;;;;;;;;;34.75;33.00;;;;;9.22;100.00;100783.06;5041412;28;45191;-74
2023/03/06 02:17:51;;;;;;;;;48.25;33.75;;;;;9.18;100.00;100781.66;5036715;28;45302;-74
2023/03/06 02:20:35;;;;;;;;;42.25;36.75;;;;;9.36;100.00;100806.22;5056515;28;47215;-74
2023/03/06 02:23:06;;;;;;;;;43.00;37.00;;;;;9.29;100.00;100797.78;5038475;28;45425;-74
2023/03/06 02:25:49;;;;;;;;;37.00;31.75;;;;;9.12;100.00;100773.22;5052270;28;45361;-74
2023/03/06 02:28:20;;;;;;;;;43.00;34.50;;;;;8.89;100.00;100748.19;5031849;28;45265;-74
2023/03/06 02:30:48;;;;;;;;;42.25;36.75;;;;;8.83;100.00;100748.72;5041711;28;46781;-74
2023/03/06 02:33:16;;;;;;;;;40.00;32.75;;;;;8.99;100.00;100752.63;5029307;28;45295;-74
2023/03/06 02:35:54;;;;;;;;;47.00;37.75;;;;;8.92;100.00;100780.41;5032093;28;45331;-74
2023/03/06 02:38:22;;;;;;;;;44.00;36.75;;;;;8.87;100.00;100763.69;5038442;28;45407;-74
2023/03/06 02:40:50;;;;;;;;;48.75;37.50;;;;;8.81;100.00;100764.25;5042757;28;46670;-75
2023/03/06 02:43:23;;;;;;;;;47.50;37.25;;;;;9.00;100.00;100767.03;5039673;28;45401;-74
2023/03/06 02:45:50;;;;;;;;;38.50;35.00;;;;;9.05;100.00;100762.06;5054823;28;45258;-74
2023/03/06 02:48:18;;;;;;;;;46.25;38.00;;;;;8.91;100.00;100730.75;5041024;28;45331;-74
2023/03/06 02:50:44;;;;;;;;;39.25;32.50;;;;;8.89;100.00;100745.47;5041602;28;45564;-74
2023/03/06 02:53:12;;;;;;;;;50.50;34.50;;;;;8.95;100.00;100755.75;5038635;28;45501;-74
2023/03/06 02:55:37;;;;;;;;;43.75;33.25;;;;;8.94;100.00;100751.31;5042523;28;45781;-74
2023/03/06 02:58:04;;;;;;;;;37.00;30.50;;;;;9.09;100.00;100752.66;5038618;28;45402;-74
2023/03/06 03:00:29;;;;;;;;;39.25;32.00;;;;;8.95;100.00;100723.22;5043767;28;47095;-74
2023/03/06 03:02:55;;;;;;;;;48.00;36.75;;;;;9.01;100.00;100751.63;5033798;28;45470;-74
2023/03/06 03:05:21;;;;;;;;;43.50;35.50;;;;;9.00;100.00;100742.63;5044454;28;45240;-74
2023/03/06 03:07:46;;;;;;;;;43.00;33.50;;;;;9.04;100.00;100740.53;5036168;28;45441;-74
2023/03/06 03:10:12;;;;;;;;;52.00;40.50;;;;;9.06;100.00;100758.34;5035934;28;47433;-75
2023/03/06 03:12:38;;;;;;;;;35.00;34.00;;;;;8.81;100.00;100707.38;5033657;28;45343;-74
2023/03/06 03:15:04;;;;;;;;;44.25;38.50;;;;;8.79;100.00;100707.50;5042604;28;45461;-74
2023/03/06 03:17:29;;;;;;;;;44.25;33.50;;;;;8.94;100.00;100751.31;5035793;28;45742;-74
2023/03/06 03:19:55;;;;;;;;;32.75;30.50;;;;;8.80;100.00;100705.66;5042198;28;45873;-74
2023/03/06 03:22:21;;;;;;;;;40.25;35.75;;;;;8.87;100.00;100728.47;5039724;28;45251;-74
2023/03/06 03:24:46;;;;;;;;;42.50;33.75;;;;;8.95;100.00;100723.22;5039998;28;45322;-74
2023/03/06 03:27:12;;;;;;;;;48.00;39.50;;;;;9.04;100.00;100727.81;5039900;28;45359;-74
2023/03/06 03:29:38;;;;;;;;;34.00;28.75;;;;;8.87;100.00;100701.38;5042026;28;46454;-74
2023/03/06 03:32:04;;;;;;;;;43.50;38.50;;;;;8.95;100.00;100723.22;5033316;28;45241;-74
2023/03/06 03:34:29;;;;;;;;;41.25;35.00;;;;;8.92;100.00;100718.94;5040380;28;45472;-74
2023/03/06 03:36:54;;;;;;;;;41.25;38.00;;;;;8.84;100.00;100702.50;5035000;28;45213;-74
2023/03/06 03:39:20;;;;;;;;;40.75;36.25;;;;;8.94;100.00;100729.66;5037054;28;47097;-74
2023/03/06 03:41:45;;;;;;;;;33.75;26.00;;;;;8.61;100.00;100695.63;5038040;28;45425;-74
2023/03/06 03:44:11;;;;;;;;;44.50;35.25;;;;;8.70;100.00;100718.28;5038255;28;45223;-74
2023/03/06 03:46:37;;;;;;;;;46.00;37.00;;;;;8.53;100.00;100707.13;5041103;28;45609;-74
2023/03/06 03:49:03;;;;;;;;;41.25;35.00;;;;;8.64;100.00;100733.25;5040389;28;45656;-74
2023/03/06 03:51:29;;;;;;;;;47.25;32.00;;;;;8.71;100.00;100728.13;5046117;28;45889;-74
2023/03/06 03:53:55;;;;;;;;;48.75;35.75;;;;;8.39;100.00;100674.16;5046662;28;45437;-74
2023/03/06 03:56:21;;;;;;;;;39.00;34.00;;;;;8.69;100.00;100719.31;5037034;28;45464;-74
2023/03/06 03:58:47;;;;;;;;;41.75;37.50;;;;;8.56;100.00;100687.03;5057662;28;47130;-74
2023/03/06 04:01:12;;;;;;;;;49.25;37.50;;;;;8.77;100.00;100723.03;5040096;28;45687;-74
2023/03/06 04:03:38;;;;;;;;;47.50;33.00;;;;;8.65;100.00;100707.88;5046446;28;46043;-74
2023/03/06 04:06:03;;;;;;;;;53.50;38.75;;;;;8.58;100.00;100704.88;5053922;28;45586;-74
2023/03/06 04:08:29;;;;;;;;;47.50;38.50;;;;;8.72;100.00;100703.63;5033075;28;46107;-74
2023/03/06 04:10:54;;;;;;;;;46.00;38.75;;;;;8.65;100.00;100705.16;5039521;28;45457;-74
2023/03/06 04:13:21;;;;;;;;;52.50;43.25;;;;;8.44;100.00;100670.03;5041624;28;45326;-75
2023/03/06 04:15:47;;;;;;;;;46.75;39.75;;;;;8.65;100.00;100709.72;5044392;28;45612;-74
2023/03/06 04:18:15;;;;;;;;;45.50;36.00;;;;;8.75;100.00;100702.50;5040552;28;46578;-74
2023/03/06 04:20:40;;;;;;;;;46.25;37.25;;;;;8.59;100.00;100687.63;5036904;28;45430;-74
2023/03/06 04:23:05;;;;;;;;;45.75;38.00;;;;;8.62;100.00;100696.47;5039150;28;45413;-74
2023/03/06 04:25:31;;;;;;;;;38.50;34.00;;;;;8.67;100.00;100697.78;5043644;28;45351;-74
2023/03/06 04:27:56;;;;;;;;;49.50;41.00;;;;;8.71;100.00;100695.63;5039357;28;47136;-74
2023/03/06 04:30:23;;;;;;;;;52.75;39.25;;;;;8.65;100.00;100663.69;5044593;28;45302;-74
2023/03/06 04:32:49;;;;;;;;;52.75;37.50;;;;;8.59;100.00;100652.44;5044296;28;45537;-74
2023/03/06 04:35:15;;;;;;;;;50.50;44.50;;;;;8.71;100.00;100685.66;5043630;28;45212;-74
2023/03/06 04:37:40;;;;;;;;;47.75;36.75;;;;;8.65;100.00;100691.63;5043903;28;45570;-73
2023/03/06 04:40:08;;;;;;;;;39.50;33.75;;;;;8.41;100.00;100683.84;5042398;28;45378;-74
2023/03/06 04:42:33;;;;;;;;;46.75;38.75;;;;;8.40;100.00;100657.75;5042011;28;45407;-73
2023/03/06 04:44:59;;;;;;;;;39.75;30.00;;;;;8.45;100.00;100669.06;5042334;28;45474;-73
2023/03/06 04:47:24;;;;;;;;;53.00;40.25;;;;;8.53;100.00;100685.47;5043981;28;46106;-73
2023/03/06 04:49:49;;;;;;;;;42.50;35.50;;;;;8.42;100.00;100685.56;5042847;28;45358;-74
2023/03/06 04:52:15;;;;;;;;;35.75;30.75;;;;;8.46;100.00;100681.59;5042127;28;45424;-74
2023/03/06 04:54:41;;;;;;;;;49.75;38.50;;;;;8.57;100.00;100683.34;5033978;28;45612;-74
2023/03/06 04:57:07;;;;;;;;;38.00;31.00;;;;;8.61;100.00;100689.34;5042760;28;45771;-74
2023/03/06 04:59:32;;;;;;;;;37.00;33.25;;;;;8.39;100.00;100675.00;5040301;28;45489;-73
2023/03/06 05:01:57;;;;;;;;;32.25;27.75;;;;;8.51;100.00;100690.16;5038408;28;45749;-75
2023/03/06 05:04:23;;;;;;;;;48.25;38.25;;;;;8.08;100.00;100654.31;5038960;28;45326;-75
2023/03/06 05:06:48;;;;;;;;;41.25;33.75;;;;;8.35;100.00;100683.53;5038617;28;46095;-74
2023/03/06 05:09:13;;;;;;;;;44.00;34.75;;;;;8.37;100.00;100677.00;5032790;28;45793;-74
2023/03/06 05:11:39;;;;;;;;;37.50;30.00;;;;;8.38;100.00;100683.28;5034096;28;45310;-76
2023/03/06 05:14:04;;;;;;;;;41.75;37.50;;;;;8.26;100.00;100663.50;5038084;28;45515;-75
2023/03/06 05:16:30;;;;;;;;;35.75;29.50;;;;;8.44;100.00;100689.00;5054701;28;47598;-74
2023/03/06 05:18:55;;;;;;;;;49.50;38.75;;;;;8.38;100.00;100676.00;5038057;28;45397;-75
2023/03/06 05:21:20;;;;;;;;;39.00;36.25;;;;;8.38;100.00;100678.72;5032688;28;45316;-73
2023/03/06 05:23:46;;;;;;;;;58.00;39.25;;;;;8.11;100.00;100657.59;5052017;28;45320;-73
2023/03/06 05:26:13;;;;;;;;;48.00;38.25;;;;;8.16;100.00;100654.50;5032401;28;45373;-76
2023/03/06 05:28:38;;;;;;;;;55.00;40.25;;;;;8.45;100.00;100663.63;5027623;28;46147;-74
2023/03/06 05:31:04;;;;;;;;;44.50;36.25;;;;;8.32;100.00;100668.44;5041523;28;45396;-74
2023/03/06 05:33:32;;;;;;;;;44.50;39.25;;;;;8.26;100.00;100668.91;5039686;28;45541;-74
2023/03/06 05:35:57;;;;;;;;;42.25;37.25;;;;;8.22;100.00;100672.91;5032118;28;48059;-74
2023/03/06 05:38:22;;;;;;;;;54.25;39.50;;;;;8.39;100.00;100669.59;5029950;28;45426;-74
2023/03/06 05:40:48;;;;;;;;;49.50;41.50;;;;;8.34;100.00;100689.94;5042613;28;45343;-74
2023/03/06 05:43:13;;;;;;;;;53.00;39.75;;;;;8.30;100.00;100664.09;5039830;28;45254;-74
2023/03/06 05:45:39;;;;;;;;;37.25;31.25;;;;;8.15;100.00;100641.97;5032621;28;47914;-75
2023/03/06 05:48:06;;;;;;;;;41.75;36.25;;;;;8.21;100.00;100638.69;5046463;28;45687;-74
2023/03/06 05:50:31;;;;;;;;;33.50;25.25;;;;;8.14;100.00;100660.03;5041309;28;45383;-74
2023/03/06 05:52:57;;;;;;;;;58.00;43.50;;;;;8.37;100.00;100670.72;5041204;28;45489;-74
2023/03/06 05:55:23;;;;;;;;;49.75;39.75;;;;;8.42;100.00;100644.94;5041084;28;47266;-74
2023/03/06 05:57:50;;;;;;;;;50.00;38.75;;;;;8.42;100.00;100641.38;5030341;28;45453;-74
2023/03/06 06:00:16;;;;;;;;;40.75;35.00;;;;;8.41;100.00;100635.09;5038905;28;45465;-75
2023/03/06 06:02:42;;;;;;;;;42.50;38.00;;;;;8.46;100.00;100578.72;5032465;28;45284;-75
2023/03/06 06:05:08;;;;;;;;;42.00;34.25;;;;;8.86;100.00;100623.81;5041330;28;46960;-76
2023/03/06 06:07:34;;;;;;;;;42.50;35.25;;;;;8.77;100.00;100595.72;5039907;28;45494;-75
2023/03/06 06:09:59;;;;;;;;;39.25;31.00;;;;;8.59;100.00;100617.22;5056707;28;45367;-74
2023/03/06 06:12:25;;;;;;;;;38.25;30.50;;;;;8.38;100.00;100624.56;5039307;28;45477;-76
2023/03/06 06:14:51;;;;;;;;;37.50;29.75;;;;;8.15;100.00;100613.06;5024589;28;46719;-74
2023/03/06 06:17:17;;;;;;;;;56.00;41.00;;;;;7.92;100.00;100579.06;5025247;28;45243;-74
2023/03/06 06:19:42;;;;;;;;;38.25;30.50;;;;;8.21;100.00;100627.88;5056265;28;45428;-75
2023/03/06 06:22:08;;;;;;;;;46.00;34.75;;;;;8.18;100.00;100620.88;5030770;28;45428;-74
2023/03/06 06:24:33;;;;;;;;;36.00;29.00;;;;;8.39;100.00;100636.25;5048377;28;46933;-74
2023/03/06 06:26:59;;;;;;;;;35.25;30.00;;;;;8.33;100.00;100642.22;5030156;28;45412;-74
2023/03/06 06:29:26;;;;;;;;;43.25;35.50;;;;;8.18;100.00;100645.22;5038878;28;45413;-74
2023/03/06 06:31:52;;;;;;;;;47.75;37.00;;;;;8.07;100.00;100628.25;5046195;28;45375;-76
2023/03/06 06:34:18;;;;;;;;;42.25;30.75;;;;;8.18;100.00;100630.88;5037917;28;45592;-75
2023/03/06 06:36:44;;;;;;;;;55.50;40.00;;;;;8.26;100.00;100635.56;5028685;28;45337;-73
2023/03/06 06:39:12;;;;;;;;;44.75;37.50;;;;;8.40;100.00;100665.03;5030025;28;45463;-74
2023/03/06 06:41:38;;;;;;;;;50.00;38.00;;;;;8.39;100.00;100666.91;5033408;28;45245;-75
2023/03/06 06:44:10;;;;;;;;;37.50;30.50;;;;;8.33;100.00;100656.59;5041518;28;46400;-76
2023/03/06 06:46:36;;;;;;;;;44.00;27.50;;;;;8.12;100.00;100642.22;5040180;28;45319;-75
2023/03/06 06:49:02;;;;;;;;;38.75;29.00;;;;;8.13;100.00;100663.75;5039623;28;45435;-74
2023/03/06 06:51:32;;;;;;;;;44.25;35.75;;;;;8.22;100.00;100645.84;5050024;28;45269;-74
2023/03/06 06:53:58;;;;;;;;;39.50;34.00;;;;;8.27;100.00;100657.09;5040147;28;45747;-74
2023/03/06 06:56:24;;;;;;;;;26.50;25.00;;;;;8.13;100.00;100665.59;5038946;28;45396;-74
2023/03/06 06:58:53;;;;;;;;;31.75;24.00;;;;;8.01;100.00;100661.25;5053443;28;45439;-74
2023/03/06 07:01:19;;;;;;;;;51.50;40.75;;;;;8.18;100.00;100677.72;5040468;28;45584;-74
2023/03/06 07:03:44;;;;;;;;;48.50;36.50;;;;;8.06;100.00;100667.97;5047007;28;48321;-75
2023/03/06 07:06:09;;;;;;;;;49.00;38.00;;;;;7.88;100.00;100638.97;5030440;28;45443;-73
2023/03/06 07:08:35;;;;;;;;;46.00;35.50;;;;;8.01;100.00;100669.38;5043479;28;45446;-74
2023/03/06 07:11:09;;;;;;;;;44.00;37.75;;;;;8.09;100.00;100688.50;5035346;28;45436;-75
2023/03/06 07:13:35;;;;;;;;;41.50;34.50;;;;;8.30;100.00;100672.22;5035464;28;46875;-75
2023/03/06 07:16:00;;;;;;;;;43.50;37.50;;;;;8.47;100.00;100677.91;5032847;28;45298;-75
2023/03/06 07:18:25;;;;;;;;;38.00;33.50;;;;;8.06;100.00;100623.81;5048860;28;45398;-74
2023/03/06 07:20:52;;;;;;;;;50.50;34.50;;;;;8.14;100.00;100648.34;5051800;28;45482;-75
2023/03/06 07:23:18;;;;;;;;;36.75;34.50;;;;;8.10;100.00;100661.31;5031537;28;45541;-74
2023/03/06 07:25:43;;;;;;;;;40.00;34.50;;;;;7.95;100.00;100669.91;5032026;28;45573;-76
2023/03/06 07:28:09;;;;;;;;;27.00;20.00;;;;;8.09;100.00;100664.16;5031741;28;47537;-75
2023/03/06 07:30:34;;;;;;;;;37.50;35.25;;;;;7.76;100.00;100649.84;5035673;28;45632;-77
2023/03/06 07:32:59;;;;;;;;;28.25;24.25;;;;;8.14;100.00;100672.72;5030893;28;48383;-74
2023/03/06 07:35:26;;;;;;;;;49.75;39.00;;;;;8.11;100.00;100665.72;5033940;28;45194;-74
2023/03/06 07:37:51;;;;;;;;;45.00;39.25;;;;;8.20;100.00;100680.28;5036363;28;45298;-75
2023/03/06 07:40:18;;;;;;;;;46.00;38.00;;;;;8.26;100.00;100677.03;5040422;28;45560;-75
2023/03/06 07:42:44;;;;;;;;;47.00;38.00;;;;;8.30;100.00;100674.94;5037564;28;47113;-74
2023/03/06 07:45:11;;;;;;;;;41.75;32.50;;;;;8.24;100.00;100665.50;5039799;28;45257;-74
2023/03/06 07:47:37;;;;;;;;;51.00;34.50;;;;;8.37;100.00;100674.28;5054652;28;45444;-75
2023/03/06 07:50:05;;;;;;;;;45.00;39.00;;;;;8.30;100.00;100674.94;5040560;28;45433;-74
2023/03/06 07:52:31;;;;;;;;;45.50;38.00;;;;;8.11;100.00;100651.31;5037776;28;45370;-75
2023/03/06 07:54:56;;;;;;;;;39.00;31.75;;;;;8.09;100.00;100670.44;5038377;28;45436;-74
2023/03/06 07:57:21;;;;;;;;;41.50;35.00;;;;;8.26;100.00;100677.03;5030027;28;45288;-74
2023/03/06 07:59:47;;;;;;;;;45.25;35.50;;;;;8.20;100.00;100678.44;5037970;28;45339;-74
2023/03/06 08:02:12;;;;;;;;;24.50;18.25;;;;;8.11;100.00;100679.25;5039141;28;45247;-75
2023/03/06 08:04:37;;;;;;;;;32.50;27.25;;;;;7.82;100.00;100627.69;5033916;28;45756;-75
2023/03/06 08:07:03;;;;;;;;;36.25;31.25;;;;;7.86;100.00;100663.44;5035119;28;45374;-75
2023/03/06 08:09:29;;;;;;;;;38.25;19.50;;;;;7.95;100.00;100680.75;5030844;28;45486;-74
2023/03/06 08:11:54;;;;;;;;;45.00;36.00;;;;;8.02;100.00;100665.69;5030168;28;46788;-74
2023/03/06 08:14:20;;;;;;;;;40.50;32.25;;;;;8.11;100.00;100679.25;5028368;28;45938;-76
2023/03/06 08:16:47;;;;;;;;;27.25;19.50;;;;;7.92;100.00;100649.38;5030846;28;45433;-75
2023/03/06 08:19:13;;;;;;;;;43.50;36.00;;;;;8.12;100.00;100671.97;5051954;28;45390;-74
2023/03/06 08:21:38;;;;;;;;;45.75;35.00;;;;;8.19;100.00;100667.75;5044791;28;47251;-74
2023/03/06 08:24:04;;;;;;;;;35.50;29.50;;;;;8.44;100.00;100694.41;5037760;28;45276;-75
2023/03/06 08:26:31;;;;;;;;;55.50;36.25;;;;;8.49;100.00;100672.31;5028926;28;45312;-74
2023/03/06 08:28:59;;;;;;;;;44.25;37.00;;;;;8.35;100.00;100667.28;5030211;28;45252;-76
2023/03/06 08:31:24;;;;;;;;;41.00;35.25;;;;;8.43;100.00;100689.97;5034802;28;46196;-75
2023/03/06 08:33:49;;;;;;;;;27.50;21.25;;;;;8.03;100.00;100653.88;5029918;28;45465;-72
2023/03/06 08:36:15;;;;;;;;;40.00;37.00;;;;;8.45;100.00;100688.00;5032263;28;45380;-72
2023/03/06 08:38:40;;;;;;;;;35.50;28.50;;;;;8.48;100.00;100676.88;5030705;28;45577;-73
2023/03/06 08:41:06;;;;;;;;;34.75;27.75;;;;;8.33;100.00;100648.47;5042051;28;46236;-73
2023/03/06 08:43:31;;;;;;;;;48.00;41.00;;;;;8.63;100.00;100690.03;5046823;28;45467;-72
2023/03/06 08:45:57;;;;;;;;;42.25;39.00;;;;;8.78;100.00;100669.72;5043397;28;45374;-72
2023/03/06 08:48:24;;;;;;;;;36.50;30.25;;;;;8.75;100.00;100713.34;5037137;28;45431;-72
2023/03/06 08:50:50;;;;;;;;;41.50;34.75;;;;;8.46;100.00;100683.44;5043944;28;46634;-72
2023/03/06 08:53:16;;;;;;;;;40.50;33.75;;;;;8.66;100.00;100679.81;5038347;28;45573;-71
2023/03/06 08:55:41;;;;;;;;;48.75;38.50;;;;;8.90;100.00;100674.03;5042575;28;45419;-72
2023/03/06 08:58:07;;;;;;;;;40.00;28.25;;;;;9.22;100.00;100701.75;5043467;28;45408;-73
2023/03/06 09:00:33;;;;;;;;;39.00;34.25;;;;;9.18;100.00;100683.19;5043640;28;45629;-72
2023/03/06 09:02:58;;;;;;;;;36.50;28.25;;;;;8.82;100.00;100665.75;5033047;28;45494;-72
2023/03/06 09:05:24;;;;;;;;;38.00;28.00;;;;;9.40;100.00;100698.34;5038653;28;45469;-72
2023/03/06 09:07:49;;;;;;;;;35.00;30.75;;;;;9.36;100.00;100687.75;5035396;28;45409;-72
2023/03/06 09:10:17;;;;;;;;;36.00;24.50;;;;;9.20;100.00;100697.47;5036780;28;45755;-72
2023/03/06 09:12:43;;;;;;;;;42.00;34.00;;;;;9.46;100.00;100689.63;5039332;28;45341;-73
2023/03/06 09:15:10;;;;;;;;;40.75;35.50;;;;;9.54;100.00;100698.78;5039667;28;45469;-72
2023/03/06 09:17:35;;;;;;;;;40.25;34.25;;;;;9.57;100.00;100684.91;5039074;28;45235;-72
2023/03/06 09:20:00;;;;;;;;;49.25;34.25;;;;;10.12;100.00;100704.97;5041874;28;46524;-72
2023/03/06 09:22:26;;;;;;;;;44.50;38.50;;;;;9.98;100.00;100699.16;5041511;28;45527;-72
2023/03/06 09:24:51;;;;;;;;;40.75;33.75;;;;;9.89;100.00;100673.75;5042616;28;45282;-72
2023/03/06 09:27:17;;;;;;;;;53.50;37.00;;;;;10.27;100.00;100705.41;5038538;28;45617;-72
2023/03/06 09:29:43;;;;;;;;;36.50;29.75;;;;;10.31;100.00;100714.09;5041989;28;45529;-75
2023/03/06 09:32:09;;;;;;;;;46.50;36.75;;;;;10.22;100.00;100680.56;5053579;28;45475;-75
2023/03/06 09:34:34;;;;;;;;;38.25;31.25;;;;;10.23;100.00;100703.13;5043203;28;45433;-74
2023/03/06 09:37:02;;;;;;;;;41.00;32.00;;;;;10.14;100.00;100705.69;5032115;28;45549;-74
2023/03/06 09:39:27;;;;;;;;;38.25;33.25;;;;;9.77;100.00;100664.06;5041009;28;47432;-74
2023/03/06 09:41:54;;;;;;;;;54.00;39.75;;;;;9.87;100.00;100658.59;5037180;28;45415;-75
2023/03/06 09:44:24;;;;;;;;;43.50;37.00;;;;;10.05;100.00;100675.84;5042938;28;45404;-74
2023/03/06 09:47:44;;;;;;;;;40.75;30.75;;;;;10.53;100.00;100716.44;5034722;28;45440;-74
2023/03/06 09:50:17;;;;;;;;;36.25;29.75;;;;;10.78;100.00;100710.34;4981604;28;45717;-75
2023/03/06 09:53:15;;;;;;;;;36.50;28.25;;;;;10.82;100.00;100717.19;4963748;28;45784;-74
2023/03/06 09:55:43;;;;;;;;;35.25;29.25;;;;;10.90;100.00;100697.41;5014851;28;45268;-73
2023/03/06 09:58:24;;;;;;;;;39.50;31.00;;;;;11.15;100.00;100695.81;5029317;28;46101;-73
2023/03/06 10:01:02;;;;;;;;;48.75;37.00;;;;;10.91;100.00;100716.28;5034830;28;45454;-73
2023/03/06 10:03:33;;;;;;;;;30.75;25.25;;;;;11.01;100.00;100713.50;5039960;28;45467;-73
2023/03/06 10:06:38;;;;;;;;;36.25;28.25;;;;;11.28;100.00;100696.31;5042123;28;45320;-74
2023/03/06 10:09:15;;;;;;;;;39.50;34.75;;;;;11.25;100.00;100694.72;5030742;28;45336;-73
2023/03/06 10:11:57;;;;;;;;;35.00;22.25;;;;;11.36;100.00;100699.09;5033862;28;45585;-73
2023/03/06 10:14:34;;;;;;;;;39.25;34.00;;;;;11.54;100.00;100678.19;5035394;28;45440;-71
2023/03/06 10:17:01;;;;;;;;;26.25;26.25;;;;;11.51;100.00;100659.47;5030096;28;45318;-72
2023/03/06 10:19:33;;;;;;;;;33.00;27.75;;;;;11.17;100.00;100680.22;5053309;28;45827;-72
2023/03/06 10:22:05;;;;;;;;;39.25;33.00;;;;;11.52;100.00;100688.38;5031082;28;45384;-72
2023/03/06 10:25:08;;;;;;;;;39.25;31.25;;;;;11.37;100.00;100702.69;5033890;28;45548;-73
2023/03/06 10:27:49;;;;;;;;;30.50;27.50;;;;;11.57;100.00;100680.59;5017095;28;45435;-72
2023/03/06 10:30:33;;;;;;;;;32.25;29.25;;;;;11.82;100.00;100676.25;5050806;28;45589;-74
2023/03/06 10:33:16;;;;;;;;;28.25;25.75;;;;;11.90;96.82;100672.75;5034875;28;45197;-74
2023/03/06 10:35:48;;;;;;;;;30.75;23.25;;;;;12.22;92.15;100681.13;5033574;28;45342;-72
2023/03/06 10:38:13;;;;;;;;;31.25;30.25;;;;;12.41;91.42;100675.47;5028045;28;45518;-74
2023/03/06 10:41:09;;;;;;;;;26.75;22.50;;;;;11.97;89.29;100677.41;5038920;28;45321;-73
2023/03/06 10:43:35;;;;;;;;;14.75;12.75;;;;;12.56;88.16;100670.28;5033461;28;45571;-75
2023/03/06 10:46:01;;;;;;;;;26.00;23.75;;;;;12.28;85.67;100664.13;5041895;28;45283;-72
2023/03/06 10:48:29;;;;;;;;;26.50;21.00;;;;;12.59;82.27;100663.63;5039961;28;45338;-73
2023/03/06 10:51:18;;;;;;;;;19.00;15.00;;;;;11.81;74.72;100677.28;5041734;28;45593;-73
2023/03/06 10:53:56;;;;;;;;;17.33;16.00;;;;;12.06;68.45;100665.53;5034042;28;46314;-72
2023/03/06 10:56:30;;;;;;;;;13.33;10.67;;;;;11.64;65.30;100680.81;5040738;28;45401;-72
2023/03/06 10:59:15;;;;;;;;;17.33;14.00;;;;;11.93;65.86;100670.53;5041622;28;45565;-74
2023/03/06 11:01:45;;;;;;;;;12.75;9.75;;;;;11.57;68.20;100626.19;5034347;28;45449;-73
2023/03/06 11:04:16;;;;;;;;;17.67;14.00;;;;;11.86;68.99;100655.88;5037740;28;46275;-73
2023/03/06 11:06:41;;;;;;;;;22.75;20.00;;;;;12.28;69.89;100666.84;5031710;28;45244;-73
2023/03/06 11:09:25;;;;;;;;;18.33;15.33;;;;;12.27;70.08;100677.94;5036115;28;45496;-73
2023/03/06 11:11:51;;;;;;;;;25.33;18.67;;;;;12.25;70.24;100652.72;5034640;28;45519;-73